createdAt,value
2019-03-22T00:00:39.852Z,5.69
2019-03-22T00:03:09.212Z,5.69
2019-03-22T00:05:38.559Z,5.55
2019-03-22T00:08:08.062Z,5.44
2019-03-22T00:10:37.603Z,5.39
2019-03-22T00:13:08.183Z,5.35
2019-03-22T00:15:38.127Z,5.22
2019-03-22T00:18:07.618Z,5.12
2019-03-22T00:20:36.962Z,4.95
2019-03-22T00:23:06.464Z,4.87
2019-03-22T00:25:35.987Z,4.79
2019-03-22T00:28:05.431Z,4.72
2019-03-22T00:30:34.962Z,4.56
2019-03-22T00:33:04.385Z,4.76
2019-03-22T00:35:33.734Z,4.60
2019-03-22T00:38:03.271Z,4.46
2019-03-22T00:40:32.767Z,4.38
2019-03-22T00:43:02.176Z,4.27
2019-03-22T00:45:31.750Z,4.20
2019-03-22T00:48:01.125Z,4.20
2019-03-22T00:50:30.567Z,4.04
2019-03-22T00:52:59.995Z,4.06
2019-03-22T00:55:29.332Z,4.00
2019-03-22T00:57:58.754Z,3.92
2019-03-22T01:00:28.281Z,3.90
2019-03-22T01:02:57.926Z,3.90
2019-03-22T01:05:27.417Z,4.14
2019-03-22T01:07:57.026Z,4.04
2019-03-22T01:10:26.455Z,3.90
2019-03-22T01:12:56.281Z,3.84
2019-03-22T01:15:25.780Z,3.77
2019-03-22T01:17:55.296Z,3.66
2019-03-22T01:20:24.641Z,3.62
2019-03-22T01:22:54.150Z,3.59
2019-03-22T01:25:23.634Z,3.61
2019-03-22T01:27:53.059Z,3.60
2019-03-22T01:30:22.432Z,3.60
2019-03-22T01:32:51.887Z,3.54
2019-03-22T01:35:21.442Z,3.50
2019-03-22T01:37:50.858Z,3.52
2019-03-22T01:40:20.260Z,3.60
2019-03-22T01:42:49.728Z,3.59
2019-03-22T01:45:19.251Z,3.73
2019-03-22T01:47:48.754Z,3.66
2019-03-22T01:50:18.334Z,3.63
2019-03-22T01:52:47.850Z,3.49
2019-03-22T01:55:17.509Z,3.53
2019-03-22T01:57:52.997Z,3.51
2019-03-22T02:00:18.685Z,3.52
2019-03-22T02:02:48.260Z,3.51
2019-03-22T02:05:18.047Z,3.51
2019-03-22T02:07:47.595Z,3.54
2019-03-22T02:10:17.721Z,3.74
2019-03-22T02:12:47.331Z,3.74
2019-03-22T02:15:17.444Z,3.63
2019-03-22T02:17:46.931Z,3.56
2019-03-22T02:20:16.561Z,3.76
2019-03-22T02:22:46.123Z,3.53
2019-03-22T02:25:15.720Z,3.38
2019-03-22T02:27:45.331Z,3.25
2019-03-22T02:30:15.122Z,3.24
2019-03-22T02:32:44.619Z,3.19
2019-03-22T02:35:27.661Z,3.43
2019-03-22T02:37:45.447Z,3.22
2019-03-22T02:40:14.953Z,3.20
2019-03-22T02:42:44.425Z,3.06
2019-03-22T02:45:14.414Z,2.99
2019-03-22T02:47:44.032Z,2.90
2019-03-22T02:50:18.381Z,2.90
2019-03-22T02:52:45.352Z,2.94
2019-03-22T02:55:15.075Z,2.92
2019-03-22T02:57:44.550Z,2.98
2019-03-22T03:00:14.509Z,3.09
2019-03-22T03:02:44.009Z,3.20
2019-03-22T03:05:14.289Z,3.32
2019-03-22T03:07:43.896Z,3.50
2019-03-22T03:10:13.776Z,3.45
2019-03-22T03:12:43.319Z,3.35
2019-03-22T03:15:13.359Z,3.23
2019-03-22T03:17:42.837Z,3.25
2019-03-22T03:20:13.634Z,3.24
2019-03-22T03:22:43.159Z,3.16
2019-03-22T03:25:13.143Z,2.99
2019-03-22T03:27:42.685Z,2.88
2019-03-22T03:30:14.476Z,2.83
2019-03-22T03:32:44.048Z,2.79
2019-03-22T03:35:13.623Z,2.77
2019-03-22T03:37:43.204Z,2.70
2019-03-22T03:40:13.003Z,2.78
2019-03-22T03:42:42.552Z,2.81
2019-03-22T03:45:28.442Z,2.92
2019-03-22T03:47:57.927Z,2.90
2019-03-22T03:50:27.425Z,2.90
2019-03-22T03:52:56.914Z,3.05
2019-03-22T03:55:26.425Z,2.99
2019-03-22T03:57:55.849Z,2.89
2019-03-22T04:00:26.623Z,2.73
2019-03-22T04:02:56.083Z,2.62
2019-03-22T04:05:25.616Z,2.58
2019-03-22T04:07:55.067Z,2.55
2019-03-22T04:10:24.438Z,2.69
2019-03-22T04:12:53.885Z,2.89
2019-03-22T04:15:23.274Z,2.69
2019-03-22T04:17:52.837Z,2.45
2019-03-22T04:20:22.206Z,2.40
2019-03-22T04:22:51.724Z,2.44
2019-03-22T04:25:21.163Z,2.54
2019-03-22T04:27:50.586Z,2.43
2019-03-22T04:30:19.995Z,2.47
2019-03-22T04:32:49.502Z,2.43
2019-03-22T04:35:18.946Z,2.34
2019-03-22T04:37:48.244Z,2.27
2019-03-22T04:40:25.939Z,2.16
2019-03-22T04:42:55.629Z,2.09
2019-03-22T04:45:26.759Z,2.13
2019-03-22T04:48:10.853Z,2.11
2019-03-22T04:50:43.574Z,2.15
2019-03-22T04:53:16.300Z,2.19
2019-03-22T04:55:48.707Z,2.23
2019-03-22T04:58:21.150Z,2.21
2019-03-22T05:00:53.280Z,2.15
2019-03-22T05:03:24.785Z,2.10
2019-03-22T05:05:56.487Z,2.00
2019-03-22T05:08:29.025Z,2.06
2019-03-22T05:11:00.720Z,2.10
2019-03-22T05:13:32.437Z,2.19
2019-03-22T05:16:02.667Z,2.18
2019-03-22T05:18:33.856Z,2.12
2019-03-22T05:21:04.983Z,2.15
2019-03-22T05:23:34.809Z,2.14
2019-03-22T05:26:04.786Z,2.09
2019-03-22T05:28:35.305Z,2.13
2019-03-22T05:31:58.151Z,2.18
2019-03-22T05:34:28.180Z,2.27
2019-03-22T05:36:57.689Z,2.24
2019-03-22T05:39:27.152Z,2.33
2019-03-22T05:41:56.587Z,2.32
2019-03-22T05:44:29.546Z,2.38
2019-03-22T05:47:00.870Z,2.49
2019-03-22T05:49:30.392Z,2.46
2019-03-22T05:51:59.800Z,2.54
2019-03-22T05:54:29.281Z,2.80
2019-03-22T05:56:59.108Z,2.89
2019-03-22T05:59:28.542Z,2.95
2019-03-22T06:01:58.005Z,2.94
2019-03-22T06:04:27.470Z,2.94
2019-03-22T06:06:56.911Z,3.15
2019-03-22T06:09:26.390Z,3.35
2019-03-22T06:11:55.887Z,3.58
2019-03-22T06:14:25.342Z,3.58
2019-03-22T06:16:54.769Z,3.72
2019-03-22T06:19:24.205Z,3.69
2019-03-22T06:21:53.631Z,3.83
2019-03-22T06:24:23.087Z,3.86
2019-03-22T06:26:52.403Z,3.98
2019-03-22T06:29:21.938Z,4.02
2019-03-22T06:31:51.297Z,4.11
2019-03-22T06:34:20.784Z,4.29
2019-03-22T06:36:50.238Z,4.49
2019-03-22T06:39:19.699Z,4.85
2019-03-22T06:41:49.129Z,5.28
2019-03-22T06:44:18.488Z,5.48
2019-03-22T06:46:47.900Z,5.65
2019-03-22T06:49:17.478Z,5.55
2019-03-22T06:51:46.991Z,5.53
2019-03-22T06:54:16.428Z,5.66
2019-03-22T06:56:45.821Z,5.89
2019-03-22T06:59:15.242Z,6.08
2019-03-22T07:01:44.678Z,6.23
2019-03-22T07:04:14.221Z,6.26
2019-03-22T07:06:43.674Z,6.22
2019-03-22T07:09:13.092Z,6.31
2019-03-22T07:11:42.605Z,6.34
2019-03-22T07:14:12.258Z,6.69
2019-03-22T07:16:41.663Z,6.81
2019-03-22T07:19:11.168Z,6.88
2019-03-22T07:21:40.554Z,7.01
2019-03-22T07:24:09.946Z,7.14
2019-03-22T07:26:39.379Z,7.16
2019-03-22T07:29:08.910Z,7.37
2019-03-22T07:31:38.345Z,7.43
2019-03-22T07:34:07.957Z,7.45
2019-03-22T07:36:37.509Z,7.65
2019-03-22T07:39:08.589Z,7.92
2019-03-22T07:41:38.141Z,8.03
2019-03-22T07:44:07.651Z,8.03
2019-03-22T07:46:37.136Z,8.26
2019-03-22T07:49:06.654Z,8.27
2019-03-22T07:51:36.177Z,8.40
2019-03-22T07:54:05.957Z,8.48
2019-03-22T07:56:35.345Z,8.74
2019-03-22T07:59:04.821Z,8.73
2019-03-22T08:01:34.313Z,8.84
2019-03-22T08:04:03.902Z,8.83
2019-03-22T08:06:33.465Z,8.83
2019-03-22T08:09:03.955Z,9.08
2019-03-22T08:11:33.452Z,9.34
2019-03-22T08:14:03.140Z,9.56
2019-03-22T08:16:32.712Z,9.76
2019-03-22T08:19:02.273Z,9.97
2019-03-22T08:21:31.720Z,10.12
2019-03-22T08:24:01.188Z,10.29
2019-03-22T08:26:30.640Z,10.43
2019-03-22T08:29:00.260Z,10.60
2019-03-22T08:31:29.793Z,10.75
2019-03-22T08:33:59.472Z,10.98
2019-03-22T08:36:29.081Z,11.17
2019-03-22T08:38:58.561Z,11.35
2019-03-22T08:41:30.145Z,11.38
2019-03-22T08:44:02.606Z,11.45
2019-03-22T08:46:30.816Z,11.78
2019-03-22T08:49:00.302Z,11.63
2019-03-22T08:51:30.105Z,11.82
2019-03-22T08:53:59.731Z,11.85
2019-03-22T08:56:29.255Z,11.93
2019-03-22T08:58:58.640Z,11.97
2019-03-22T09:01:28.167Z,12.15
2019-03-22T09:03:57.608Z,12.20
2019-03-22T09:06:27.175Z,12.25
2019-03-22T09:08:56.620Z,12.46
2019-03-22T09:11:26.153Z,12.57
2019-03-22T09:13:55.603Z,12.68
2019-03-22T09:16:25.284Z,12.85
2019-03-22T09:18:54.647Z,12.97
2019-03-22T09:21:24.277Z,13.11
2019-03-22T09:23:53.731Z,13.23
2019-03-22T09:26:23.210Z,13.52
2019-03-22T09:28:52.594Z,13.52
2019-03-22T09:31:22.134Z,13.57
2019-03-22T09:33:51.703Z,13.73
2019-03-22T09:36:21.137Z,13.85
2019-03-22T09:38:50.682Z,13.89
2019-03-22T09:41:20.355Z,13.92
2019-03-22T09:43:49.891Z,14.20
2019-03-22T09:46:19.532Z,14.27
2019-03-22T09:48:49.220Z,14.34
2019-03-22T09:51:18.746Z,14.32
2019-03-22T09:53:48.250Z,14.61
2019-03-22T09:56:17.695Z,14.64
2019-03-22T09:58:47.349Z,14.90
2019-03-22T10:01:23.580Z,14.89
2019-03-22T10:03:52.320Z,14.86
2019-03-22T10:06:22.366Z,14.95
2019-03-22T10:08:51.875Z,15.11
2019-03-22T10:11:21.565Z,15.15
2019-03-22T10:13:51.046Z,15.46
2019-03-22T10:16:20.661Z,15.61
2019-03-22T10:18:50.074Z,15.92
2019-03-22T10:21:22.579Z,15.72
2019-03-22T10:23:50.682Z,15.72
2019-03-22T10:26:20.227Z,15.72
2019-03-22T10:28:49.732Z,15.84
2019-03-22T10:31:19.272Z,16.04
2019-03-22T10:33:48.796Z,15.96
2019-03-22T10:36:18.293Z,15.83
2019-03-22T10:38:50.351Z,15.68
2019-03-22T10:41:19.060Z,16.04
2019-03-22T10:43:48.599Z,16.30
2019-03-22T10:46:18.182Z,16.47
2019-03-22T10:48:47.598Z,16.60
2019-03-22T10:51:17.051Z,16.68
2019-03-22T10:53:46.541Z,16.64
2019-03-22T10:56:16.025Z,16.68
2019-03-22T10:58:45.567Z,16.63
2019-03-22T11:01:15.400Z,16.92
2019-03-22T11:03:45.000Z,17.02
2019-03-22T11:06:14.660Z,17.23
2019-03-22T11:08:44.148Z,17.26
2019-03-22T11:11:13.809Z,17.26
2019-03-22T11:13:43.243Z,17.05
2019-03-22T11:16:12.658Z,17.18
2019-03-22T11:18:42.192Z,17.38
2019-03-22T11:21:11.756Z,17.66
2019-03-22T11:23:41.250Z,17.71
2019-03-22T11:26:10.804Z,17.74
2019-03-22T11:28:40.376Z,17.92
2019-03-22T11:31:09.920Z,17.76
2019-03-22T11:33:39.427Z,17.86
2019-03-22T11:36:08.873Z,17.62
2019-03-22T11:38:38.416Z,18.00
2019-03-22T11:41:07.951Z,17.90
2019-03-22T11:43:37.465Z,18.22
2019-03-22T11:46:06.942Z,17.99
2019-03-22T11:48:36.345Z,17.89
2019-03-22T11:51:05.971Z,18.12
2019-03-22T11:53:35.459Z,17.98
2019-03-22T11:56:05.113Z,18.04
2019-03-22T11:58:34.700Z,18.14
2019-03-22T12:01:04.254Z,17.82
2019-03-22T12:03:33.712Z,18.04
2019-03-22T12:06:03.342Z,18.16
2019-03-22T12:08:32.999Z,18.17
2019-03-22T12:11:02.579Z,18.32
2019-03-22T12:13:32.056Z,18.44
2019-03-22T12:16:01.872Z,18.57
2019-03-22T12:18:31.419Z,18.54
2019-03-22T12:21:01.023Z,18.44
2019-03-22T12:23:30.596Z,18.48
2019-03-22T12:26:00.034Z,18.92
2019-03-22T12:28:29.638Z,18.92
2019-03-22T12:30:59.148Z,18.91
2019-03-22T12:33:28.607Z,18.79
2019-03-22T12:35:58.028Z,18.75
2019-03-22T12:38:27.468Z,18.65
2019-03-22T12:40:56.987Z,18.81
2019-03-22T12:43:26.400Z,18.55
2019-03-22T12:45:56.023Z,18.50
2019-03-22T12:48:25.356Z,18.63
2019-03-22T12:50:54.864Z,18.66
2019-03-22T12:53:24.348Z,18.59
2019-03-22T12:55:53.831Z,18.65
2019-03-22T12:58:23.311Z,18.74
2019-03-22T13:00:52.854Z,18.74
2019-03-22T13:03:24.303Z,18.74
2019-03-22T13:05:53.502Z,18.74
2019-03-22T13:08:23.108Z,18.68
2019-03-22T13:10:52.492Z,18.75
2019-03-22T13:13:21.918Z,19.06
2019-03-22T13:15:51.416Z,18.97
2019-03-22T13:18:20.827Z,19.08
2019-03-22T13:20:51.164Z,18.89
2019-03-22T13:23:20.762Z,18.98
2019-03-22T13:25:50.159Z,19.07
2019-03-22T13:28:19.593Z,19.08
2019-03-22T13:30:49.247Z,18.77
2019-03-22T13:33:18.752Z,18.95
2019-03-22T13:35:48.313Z,19.00
2019-03-22T13:38:17.828Z,18.96
2019-03-22T13:40:47.339Z,18.96
2019-03-22T13:43:16.789Z,19.37
2019-03-22T13:45:46.303Z,19.11
2019-03-22T13:48:15.685Z,18.96
2019-03-22T13:50:45.117Z,18.59
2019-03-22T13:53:14.443Z,18.54
2019-03-22T13:55:43.904Z,18.91
2019-03-22T13:58:13.377Z,18.78
2019-03-22T14:00:42.910Z,19.18
2019-03-22T14:03:12.525Z,19.03
2019-03-22T14:05:41.977Z,18.91
2019-03-22T14:08:11.680Z,19.09
2019-03-22T14:10:41.062Z,18.92
2019-03-22T14:13:10.557Z,19.36
2019-03-22T14:15:40.075Z,19.64
2019-03-22T14:18:09.516Z,19.47
2019-03-22T14:20:38.981Z,20.17
2019-03-22T14:23:08.555Z,20.37
2019-03-22T14:25:38.115Z,19.74
2019-03-22T14:28:07.593Z,20.09
2019-03-22T14:30:37.609Z,20.00
2019-03-22T14:33:13.310Z,20.61
2019-03-22T14:35:38.533Z,20.12
2019-03-22T14:38:08.142Z,20.06
2019-03-22T14:40:37.631Z,19.74
2019-03-22T14:43:06.990Z,20.42
2019-03-22T14:45:36.506Z,21.47
2019-03-22T14:48:06.093Z,20.84
2019-03-22T14:50:35.578Z,21.63
2019-03-22T14:53:05.219Z,22.46
2019-03-22T14:55:34.811Z,21.61
2019-03-22T14:58:04.753Z,21.66
2019-03-22T15:00:34.403Z,22.31
2019-03-22T15:03:08.695Z,22.20
2019-03-22T15:05:38.179Z,22.21
2019-03-22T15:08:10.055Z,21.89
2019-03-22T15:10:38.960Z,21.69
2019-03-22T15:13:08.520Z,21.78
2019-03-22T15:16:02.894Z,21.90
2019-03-22T15:18:54.532Z,22.21
2019-03-22T15:21:51.527Z,21.90
2019-03-22T15:24:44.159Z,22.20
2019-03-22T15:27:41.481Z,22.07
2019-03-22T15:30:48.801Z,21.84
2019-03-22T15:33:35.786Z,21.77
2019-03-22T15:36:21.230Z,22.26
2019-03-22T15:39:09.269Z,22.70
2019-03-22T15:41:38.948Z,23.27
2019-03-22T15:44:08.553Z,22.61
2019-03-22T15:46:40.955Z,22.63
2019-03-22T15:49:10.560Z,22.82
2019-03-22T15:51:39.970Z,23.15
2019-03-22T15:54:09.646Z,23.57
2019-03-22T15:56:39.159Z,23.69
2019-03-22T15:59:08.766Z,23.74
2019-03-22T16:01:38.510Z,23.24
2019-03-22T16:04:08.062Z,22.99
2019-03-22T16:06:38.575Z,22.94
2019-03-22T16:09:08.899Z,22.84
2019-03-22T16:11:38.452Z,22.66
2019-03-22T16:14:07.947Z,22.55
2019-03-22T16:16:37.497Z,22.80
2019-03-22T16:19:07.059Z,23.05
2019-03-22T16:21:36.600Z,23.75
2019-03-22T16:24:06.135Z,23.76
2019-03-22T16:26:35.827Z,23.52
2019-03-22T16:29:06.642Z,23.46
2019-03-22T16:31:36.254Z,23.42
2019-03-22T16:34:05.767Z,23.32
2019-03-22T16:36:35.204Z,23.52
2019-03-22T16:39:08.052Z,23.33
2019-03-22T16:41:37.497Z,22.94
2019-03-22T16:44:07.146Z,22.99
2019-03-22T16:46:38.001Z,23.43
2019-03-22T16:49:08.445Z,23.55
2019-03-22T16:51:37.852Z,23.50
2019-03-22T16:54:07.539Z,23.03
2019-03-22T16:56:36.886Z,22.16
2019-03-22T16:59:07.607Z,21.55
2019-03-22T17:01:40.832Z,21.48
2019-03-22T17:04:10.357Z,22.05
2019-03-22T17:06:39.788Z,21.97
2019-03-22T17:09:09.450Z,21.36
2019-03-22T17:11:38.978Z,21.05
2019-03-22T17:14:08.411Z,20.76
2019-03-22T17:16:37.882Z,20.76
2019-03-22T17:19:07.474Z,20.42
2019-03-22T17:21:36.979Z,20.11
2019-03-22T17:24:06.594Z,19.72
2019-03-22T17:26:36.059Z,19.39
2019-03-22T17:29:07.617Z,19.34
2019-03-22T17:31:36.753Z,18.98
2019-03-22T17:34:13.953Z,18.43
2019-03-22T17:36:38.282Z,17.97
2019-03-22T17:39:08.651Z,17.74
2019-03-22T17:41:38.140Z,17.50
2019-03-22T17:44:07.580Z,17.29
2019-03-22T17:46:37.145Z,17.09
2019-03-22T17:49:08.232Z,16.82
2019-03-22T17:51:37.797Z,16.53
2019-03-22T17:54:07.238Z,16.42
2019-03-22T17:56:36.749Z,16.05
2019-03-22T17:59:06.297Z,15.81
2019-03-22T18:01:35.856Z,15.64
2019-03-22T18:04:05.631Z,15.35
2019-03-22T18:06:35.108Z,15.14
2019-03-22T18:09:06.133Z,14.89
2019-03-22T18:11:35.822Z,14.78
2019-03-22T18:14:05.583Z,14.60
2019-03-22T18:16:35.164Z,14.57
2019-03-22T18:19:04.635Z,14.39
2019-03-22T18:21:34.662Z,14.75
2019-03-22T18:24:04.108Z,14.48
2019-03-22T18:26:33.691Z,14.38
2019-03-22T18:29:03.306Z,14.10
2019-03-22T18:31:32.803Z,13.94
2019-03-22T18:34:02.294Z,13.86
2019-03-22T18:36:31.862Z,13.68
2019-03-22T18:39:01.350Z,13.57
2019-03-22T18:41:31.021Z,13.44
2019-03-22T18:44:00.586Z,13.28
2019-03-22T18:46:30.191Z,13.21
2019-03-22T18:48:59.754Z,13.07
2019-03-22T18:51:29.332Z,13.04
2019-03-22T18:53:58.799Z,12.99
2019-03-22T18:56:28.262Z,12.95
2019-03-22T18:58:57.797Z,12.94
2019-03-22T19:01:27.301Z,12.85
2019-03-22T19:03:56.881Z,12.72
2019-03-22T19:06:26.422Z,12.47
2019-03-22T19:08:55.864Z,12.47
2019-03-22T19:11:25.541Z,12.53
2019-03-22T19:13:55.189Z,12.43
2019-03-22T19:16:24.681Z,12.24
2019-03-22T19:18:54.139Z,12.08
2019-03-22T19:21:23.773Z,11.81
2019-03-22T19:23:53.226Z,11.62
2019-03-22T19:26:22.835Z,11.58
2019-03-22T19:28:52.299Z,11.51
2019-03-22T19:31:21.856Z,11.53
2019-03-22T19:33:51.253Z,11.45
2019-03-22T19:36:20.660Z,11.42
2019-03-22T19:38:50.185Z,11.38
2019-03-22T19:41:19.704Z,11.24
2019-03-22T19:43:49.122Z,11.19
2019-03-22T19:46:18.633Z,11.12
2019-03-22T19:48:48.846Z,11.12
2019-03-22T19:51:18.297Z,11.00
2019-03-22T19:53:47.756Z,10.83
2019-03-22T19:56:17.380Z,10.83
2019-03-22T19:58:46.920Z,10.72
2019-03-22T20:01:16.432Z,10.70
2019-03-22T20:03:45.822Z,10.54
2019-03-22T20:06:15.396Z,10.31
2019-03-22T20:08:45.158Z,10.31
2019-03-22T20:11:14.619Z,10.50
2019-03-22T20:13:44.265Z,10.28
2019-03-22T20:16:13.672Z,10.07
2019-03-22T20:18:43.167Z,9.95
2019-03-22T20:21:12.674Z,9.89
2019-03-22T20:23:53.051Z,9.79
2019-03-22T20:26:13.384Z,9.75
2019-03-22T20:28:42.788Z,9.66
2019-03-22T20:31:12.360Z,9.54
2019-03-22T20:33:41.841Z,9.61
2019-03-22T20:36:11.409Z,9.62
2019-03-22T20:38:40.848Z,9.46
2019-03-22T20:41:10.306Z,9.41
2019-03-22T20:43:39.778Z,9.34
2019-03-22T20:46:09.623Z,9.48
2019-03-22T20:48:40.304Z,9.22
2019-03-22T20:51:09.768Z,9.07
2019-03-22T20:53:39.168Z,8.93
2019-03-22T20:56:08.656Z,8.78
2019-03-22T20:58:38.119Z,8.70
2019-03-22T21:01:07.568Z,8.63
2019-03-22T21:03:37.200Z,8.53
2019-03-22T21:06:06.725Z,8.61
2019-03-22T21:08:36.096Z,8.58
2019-03-22T21:11:05.936Z,8.51
2019-03-22T21:13:35.466Z,8.48
2019-03-22T21:16:04.965Z,8.48
2019-03-22T21:18:34.374Z,8.40
2019-03-22T21:21:03.852Z,8.44
2019-03-22T21:23:36.685Z,8.62
2019-03-22T21:26:04.616Z,8.74
2019-03-22T21:28:34.038Z,8.86
2019-03-22T21:31:03.463Z,8.96
2019-03-22T21:33:33.018Z,8.91
2019-03-22T21:36:02.348Z,8.79
2019-03-22T21:38:31.834Z,8.80
2019-03-22T21:41:01.330Z,8.70
2019-03-22T21:43:30.834Z,8.72
2019-03-22T21:46:00.544Z,8.59
2019-03-22T21:48:29.989Z,8.57
2019-03-22T21:50:59.371Z,8.33
2019-03-22T21:53:29.710Z,8.15
2019-03-22T21:55:59.215Z,7.97
2019-03-22T21:58:28.874Z,7.94
2019-03-22T22:00:58.163Z,8.06
2019-03-22T22:03:27.671Z,7.94
2019-03-22T22:05:57.031Z,7.82
2019-03-22T22:08:26.442Z,7.86
2019-03-22T22:11:00.057Z,7.88
2019-03-22T22:13:27.168Z,7.87
2019-03-22T22:15:56.666Z,7.93
2019-03-22T22:18:26.377Z,7.91
2019-03-22T22:20:55.775Z,7.78
2019-03-22T22:23:25.991Z,7.66
2019-03-22T22:25:55.582Z,7.71
2019-03-22T22:28:25.006Z,7.62
2019-03-22T22:30:54.382Z,7.70
2019-03-22T22:33:23.726Z,7.60
2019-03-22T22:35:58.711Z,7.53
2019-03-22T22:38:24.267Z,7.41
2019-03-22T22:40:53.940Z,7.37
2019-03-22T22:43:23.576Z,7.40
2019-03-22T22:45:53.181Z,7.32
2019-03-22T22:48:22.682Z,7.36
2019-03-22T22:50:52.237Z,7.31
2019-03-22T22:53:21.762Z,7.27
2019-03-22T22:55:51.502Z,7.24
2019-03-22T22:58:20.934Z,7.11
2019-03-22T23:00:50.537Z,7.07
2019-03-22T23:03:19.999Z,6.91
2019-03-22T23:05:49.429Z,6.90
2019-03-22T23:08:19.051Z,6.82
2019-03-22T23:10:48.355Z,6.76
2019-03-22T23:13:17.855Z,6.72
2019-03-22T23:15:47.257Z,6.76
2019-03-22T23:18:16.650Z,6.49
2019-03-22T23:20:46.081Z,6.61
2019-03-22T23:23:17.912Z,6.61
2019-03-22T23:25:47.483Z,6.51
2019-03-22T23:28:17.758Z,6.41
2019-03-22T23:30:47.670Z,6.40
2019-03-22T23:33:17.293Z,6.32
2019-03-22T23:35:46.702Z,6.32
2019-03-22T23:38:16.196Z,6.27
2019-03-22T23:40:45.757Z,6.17
2019-03-22T23:43:15.230Z,6.08
2019-03-22T23:45:44.875Z,6.05
2019-03-22T23:48:14.277Z,6.10
2019-03-22T23:50:43.691Z,6.12
2019-03-22T23:53:13.088Z,6.04
2019-03-22T23:55:42.552Z,6.14
2019-03-22T23:58:12.078Z,6.15
